KNUW/NUW METAR and TAF weather

Enter ICAO airport designator
Station Type Date Time Source
KNUW METAR 2020/02/22 05:56 UTC NOAA

KNUW 220556Z 25006KT 10SM FEW040 BKN110 BKN140 OVC220 09/04 A3018 RMK AO2 SLP218 T00940039 10100 20061 53001 $


Station Type Date Time Source
KNUW Decoded METAR 2020/02/22 05:56 UTC NOAA

NAS WHIDBEY ISLAND, WA, United States (KNUW) 48-21N 122-39W 8M
Feb 22, 2020 - 12:56 AM EST / 2020.02.22 0556 UTC
Wind: from the WSW (250 degrees) at 7 MPH (6 KT):0
Visibility: 10 mile(s):0
Sky conditions: overcast
Temperature: 48.9 F (9.4 C)
Dew Point: 39.0 F (3.9 C)
Relative Humidity: 68%
Pressure (altimeter): 30.18 in. Hg (1022 hPa)
Pressure tendency: 0.00 inches (0.1 hPa) higher than three hours ago
ob: KNUW 220556Z 25006KT 10SM FEW040 BKN110 BKN140 OVC220 09/04 A3018 RMK AO2 SLP218 T00940039 10100 20061 53001
cycle: 6

Station Type Date Time Source
KNUW TAF 2020/02/21 23:03 UTC NOAA

TAF TAF KNUW 2123/2223 VRB06KT 9999 FEW070 SCT110 BKN200 BKN250 QNH3013INS
TEMPO 2123/2203 27007KT
FM220600 15010KT 9999 VCSH FEW015 BKN050 BKN080 OVC160 620509 QNH3009INS
FM220900 15013G20KT 9999 -RA SCT015 BKN033 OVC050 640509 QNH3002INS
TEMPO 2211/2217 VRB06KT 9000 -SHRA BR BKN015 OVC033
FM221800 25012G18KT 9999 VCSH SCT020 BKN035 BKN130 BKN250 QNH3015INS T12/2123Z T04/2211Z FS30046

Example: see airport list